createdAt,value
2022-12-17T00:03:02.887Z,93770.59
2022-12-17T00:05:48.234Z,93787.16
2022-12-17T00:08:40.308Z,93766.06
2022-12-17T00:11:42.479Z,93759.53
2022-12-17T00:14:35.462Z,93778.16
2022-12-17T00:17:21.625Z,93779.19
2022-12-17T00:20:06.504Z,93802.94
2022-12-17T00:22:51.280Z,93803.22
2022-12-17T00:25:36.121Z,93804.84
2022-12-17T00:28:20.896Z,93775.84
2022-12-17T00:31:21.441Z,93796.25
2022-12-17T00:34:06.501Z,93805.56
2022-12-17T00:36:51.239Z,93834.59
2022-12-17T00:39:36.124Z,93827.19
2022-12-17T00:42:20.916Z,93816.47
2022-12-17T00:45:11.912Z,93809.97
2022-12-17T00:47:56.805Z,93838.91
2022-12-17T00:50:41.598Z,93823.91
2022-12-17T00:53:27.404Z,93837.19
2022-12-17T00:56:12.146Z,93830.91
2022-12-17T00:59:03.988Z,93816.75
2022-12-17T01:01:51.187Z,93845.31
2022-12-17T01:04:37.308Z,93869.81
2022-12-17T01:07:22.033Z,93852.66
2022-12-17T01:10:06.789Z,93869.47
2022-12-17T01:12:51.551Z,93861.47
2022-12-17T01:15:37.137Z,93864.38
2022-12-17T01:18:57.498Z,93875.66
2022-12-17T01:21:42.104Z,93881.13
2022-12-17T01:24:27.127Z,93853.91
2022-12-17T01:27:11.972Z,93881.22
2022-12-17T01:29:56.645Z,93889.13
2022-12-17T01:32:41.637Z,93855.53
2022-12-17T01:35:27.979Z,93902.50
2022-12-17T01:38:12.964Z,93868.09
2022-12-17T01:40:57.725Z,93871.09
2022-12-17T01:43:53.746Z,93865.88
2022-12-17T01:46:41.275Z,93907.81
2022-12-17T01:49:28.211Z,93903.66
2022-12-17T01:52:13.981Z,93895.53
2022-12-17T01:54:59.812Z,93889.47
2022-12-17T01:57:45.645Z,93889.00
2022-12-17T02:00:34.615Z,93913.75
2022-12-17T02:03:19.432Z,93877.81
2022-12-17T02:06:29.407Z,93917.13
2022-12-17T02:09:35.667Z,93921.09
2022-12-17T02:12:33.466Z,93923.38
2022-12-17T02:15:32.538Z,93915.25
2022-12-17T02:18:30.059Z,93914.78
2022-12-17T02:21:16.453Z,93915.84
2022-12-17T02:24:20.159Z,93930.78
2022-12-17T02:27:10.120Z,93917.56
2022-12-17T02:30:02.496Z,93890.59
2022-12-17T02:32:49.176Z,93895.22
2022-12-17T02:35:46.069Z,93912.41
2022-12-17T02:38:49.517Z,93939.19
2022-12-17T02:41:40.281Z,93942.78
2022-12-17T02:44:28.130Z,93912.88
2022-12-17T02:47:16.826Z,93917.03
2022-12-17T02:50:02.590Z,93909.69
2022-12-17T02:52:49.458Z,93932.81
2022-12-17T02:55:34.249Z,93904.47
2022-12-17T02:58:18.917Z,93890.06
2022-12-17T03:01:04.985Z,93925.19
2022-12-17T03:03:50.567Z,93941.34
2022-12-17T03:06:36.159Z,93913.75
2022-12-17T03:09:22.161Z,93919.13
2022-12-17T03:12:06.811Z,93929.59
2022-12-17T03:14:51.664Z,93928.69
2022-12-17T03:17:36.790Z,93921.16
2022-12-17T03:20:22.238Z,93959.72
2022-12-17T03:23:07.105Z,93943.22
2022-12-17T03:25:51.999Z,93927.84
2022-12-17T03:28:37.007Z,93962.81
2022-12-17T03:31:26.010Z,93944.00
2022-12-17T03:34:12.751Z,93925.13
2022-12-17T03:36:57.511Z,93920.91
2022-12-17T03:39:42.329Z,93936.16
2022-12-17T03:42:27.101Z,93920.63
2022-12-17T03:45:11.912Z,93922.38
2022-12-17T03:48:04.067Z,93965.22
2022-12-17T03:50:48.919Z,93939.81
2022-12-17T03:53:33.913Z,93956.59
2022-12-17T03:56:19.121Z,93949.34
2022-12-17T03:59:03.925Z,93967.25
2022-12-17T04:01:48.950Z,93977.13
2022-12-17T04:04:33.662Z,93963.19
2022-12-17T04:07:19.338Z,93972.38
2022-12-17T04:10:04.281Z,93949.50
2022-12-17T04:12:49.014Z,94004.66
2022-12-17T04:15:34.294Z,94017.91
2022-12-17T04:18:25.698Z,93987.06
2022-12-17T04:21:10.441Z,94005.63
2022-12-17T04:23:55.348Z,94022.28
2022-12-17T04:26:46.613Z,94027.72
2022-12-17T04:29:31.302Z,94015.06
2022-12-17T04:32:16.380Z,94005.47
2022-12-17T04:35:01.163Z,94019.56
2022-12-17T04:37:45.885Z,94036.06
2022-12-17T04:40:30.809Z,94015.06
2022-12-17T04:43:15.658Z,94015.69
2022-12-17T04:46:00.818Z,94019.97
2022-12-17T04:48:45.866Z,94032.63
2022-12-17T04:51:30.543Z,94058.50
2022-12-17T04:54:15.397Z,94027.53
2022-12-17T04:57:00.240Z,94044.19
2022-12-17T04:59:45.125Z,94058.59
2022-12-17T05:02:30.178Z,94045.88
2022-12-17T05:05:17.356Z,94044.28
2022-12-17T05:08:02.165Z,94071.59
2022-12-17T05:10:46.868Z,94044.88
2022-12-17T05:13:31.569Z,94041.19
2022-12-17T05:16:20.614Z,94074.41
2022-12-17T05:19:05.670Z,94076.06
2022-12-17T05:21:50.445Z,94085.69
2022-12-17T05:24:35.145Z,94078.72
2022-12-17T05:27:19.825Z,94046.91
2022-12-17T05:30:04.687Z,94078.25
2022-12-17T05:32:49.649Z,94037.03
2022-12-17T05:35:34.961Z,94055.75
2022-12-17T05:38:27.402Z,94075.19
2022-12-17T05:41:16.366Z,94108.66
2022-12-17T05:44:01.617Z,94124.09
2022-12-17T05:46:47.673Z,94111.47
2022-12-17T05:49:32.707Z,94116.56
2022-12-17T05:52:17.345Z,94078.44
2022-12-17T05:55:02.114Z,94084.16
2022-12-17T05:57:50.488Z,94108.94
2022-12-17T06:00:51.235Z,94113.91
2022-12-17T06:03:36.490Z,94088.66
2022-12-17T06:06:21.825Z,94099.91
2022-12-17T06:09:13.549Z,94112.06
2022-12-17T06:12:02.553Z,94110.59
2022-12-17T06:14:48.151Z,94082.69
2022-12-17T06:17:34.188Z,94141.06
2022-12-17T06:20:18.997Z,94103.44
2022-12-17T06:23:23.643Z,94128.00
2022-12-17T06:26:11.705Z,94149.00
2022-12-17T06:28:56.729Z,94113.16
2022-12-17T06:31:42.098Z,94128.44
2022-12-17T06:34:34.445Z,94133.78
2022-12-17T06:37:19.175Z,94104.47
2022-12-17T06:40:04.024Z,94129.56
2022-12-17T06:42:49.874Z,94076.72
2022-12-17T06:45:34.975Z,94136.44
2022-12-17T06:48:24.017Z,94159.34
2022-12-17T06:51:08.935Z,94146.31
2022-12-17T06:53:53.881Z,94137.72
2022-12-17T06:56:47.918Z,94174.06
2022-12-17T06:59:32.792Z,94139.94
2022-12-17T07:02:19.891Z,94173.88
2022-12-17T07:05:05.103Z,94188.41
2022-12-17T07:07:56.002Z,94152.19
2022-12-17T07:10:42.167Z,94178.09
2022-12-17T07:13:28.001Z,94199.88
2022-12-17T07:16:13.813Z,94197.13
2022-12-17T07:18:58.856Z,94167.25
2022-12-17T07:21:45.294Z,94177.31
2022-12-17T07:24:30.600Z,94210.72
2022-12-17T07:27:15.848Z,94179.03
2022-12-17T07:30:00.721Z,94161.03
2022-12-17T07:32:45.851Z,94211.38
2022-12-17T07:35:31.128Z,94165.31
2022-12-17T07:38:20.714Z,94223.53
2022-12-17T07:41:07.887Z,94217.00
2022-12-17T07:43:53.788Z,94218.44
2022-12-17T07:46:47.891Z,94217.75
2022-12-17T07:49:55.891Z,94243.03
2022-12-17T07:52:54.063Z,94226.25
2022-12-17T07:55:39.873Z,94227.06
2022-12-17T07:58:31.818Z,94249.88
2022-12-17T08:01:21.112Z,94214.91
2022-12-17T08:04:15.562Z,94234.16
2022-12-17T08:07:08.394Z,94223.25
2022-12-17T08:09:55.481Z,94223.25
2022-12-17T08:12:46.412Z,94244.16
2022-12-17T08:15:32.599Z,94240.22
2022-12-17T08:18:26.234Z,94248.88
2022-12-17T08:21:17.605Z,94231.59
2022-12-17T08:24:12.491Z,94231.97
2022-12-17T08:26:59.140Z,94265.22
2022-12-17T08:29:51.970Z,94272.69
2022-12-17T08:32:37.051Z,94248.13
2022-12-17T08:35:23.559Z,94296.44
2022-12-17T08:38:36.625Z,94295.66
2022-12-17T08:41:43.662Z,94297.81
2022-12-17T08:44:35.701Z,94283.47
2022-12-17T08:47:20.848Z,94268.38
2022-12-17T08:50:07.639Z,94274.72
2022-12-17T08:52:56.981Z,94262.34
2022-12-17T08:55:41.733Z,94291.16
2022-12-17T08:58:26.948Z,94267.34
2022-12-17T09:01:12.156Z,94277.09
2022-12-17T09:03:58.333Z,94294.16
2022-12-17T09:06:44.254Z,94261.72
2022-12-17T09:09:29.633Z,94304.03
2022-12-17T09:12:14.409Z,94267.78
2022-12-17T09:14:59.181Z,94307.44
2022-12-17T09:17:44.187Z,94274.47
2022-12-17T09:20:29.772Z,94315.69
2022-12-17T09:23:15.379Z,94316.03
2022-12-17T09:26:00.627Z,94303.38
2022-12-17T09:28:46.003Z,94311.19
2022-12-17T09:31:37.869Z,94285.59
2022-12-17T09:34:25.724Z,94262.78
2022-12-17T09:37:10.720Z,94318.72
2022-12-17T09:39:58.219Z,94335.63
2022-12-17T09:42:59.842Z,94340.75
2022-12-17T09:45:55.722Z,94347.88
2022-12-17T09:48:56.210Z,94342.16
2022-12-17T09:52:04.131Z,94343.00
2022-12-17T13:30:17.433Z,94363.00
2022-12-17T13:33:28.015Z,94354.34
2022-12-17T13:36:22.094Z,94358.38
2022-12-17T13:38:54.422Z,94363.44
2022-12-17T13:41:28.778Z,94313.75
2022-12-17T13:44:20.069Z,94364.16
2022-12-17T13:47:03.080Z,94364.38
2022-12-17T13:49:31.749Z,94375.09
2022-12-17T13:52:30.424Z,94380.00
2022-12-17T13:55:09.558Z,94383.94
2022-12-17T13:57:52.622Z,94331.91
2022-12-17T14:00:30.822Z,94365.00
2022-12-17T14:02:57.424Z,94368.75
2022-12-17T14:05:30.726Z,94351.25
2022-12-17T14:08:08.323Z,94391.16
2022-12-17T14:10:34.750Z,94376.06
2022-12-17T14:13:08.443Z,94354.91
2022-12-17T14:15:35.313Z,94382.50
2022-12-17T14:18:05.282Z,94388.47
2022-12-17T14:20:36.298Z,94351.53
2022-12-17T14:23:17.160Z,94362.59
2022-12-17T14:25:44.343Z,94344.66
2022-12-17T14:28:29.065Z,94398.47
2022-12-17T14:31:30.855Z,94398.13
2022-12-17T14:34:10.896Z,94404.28
2022-12-17T14:36:43.547Z,94380.38
2022-12-17T14:39:31.602Z,94377.31
2022-12-17T14:42:25.330Z,94378.34
2022-12-17T14:44:54.376Z,94408.38
2022-12-17T14:47:29.881Z,94386.09
2022-12-17T14:50:01.214Z,94371.31
2022-12-17T14:52:44.394Z,94414.13
2022-12-17T14:55:55.023Z,94418.91
2022-12-17T14:58:23.594Z,94396.81
2022-12-17T15:01:12.395Z,94407.06
2022-12-17T15:03:41.940Z,94414.56
2022-12-17T15:06:17.790Z,94413.13
2022-12-17T15:08:49.390Z,94436.97
2022-12-17T15:11:20.134Z,94433.91
2022-12-17T15:13:56.291Z,94366.53
2022-12-17T15:16:23.558Z,94418.03
2022-12-17T15:18:50.003Z,94396.88
2022-12-17T15:21:18.469Z,94419.78
2022-12-17T15:23:46.390Z,94410.66
2022-12-17T15:26:15.094Z,94406.22
2022-12-17T15:28:42.774Z,94407.09
2022-12-17T15:31:12.165Z,94445.47
2022-12-17T15:33:38.948Z,94386.59
2022-12-17T15:36:07.070Z,94423.50
2022-12-17T15:38:33.912Z,94406.13
2022-12-17T15:41:01.765Z,94441.19
2022-12-17T15:43:28.175Z,94400.69
2022-12-17T15:46:01.025Z,94409.69
2022-12-17T15:48:27.435Z,94423.59
2022-12-17T15:50:53.841Z,94421.69
2022-12-17T15:53:20.261Z,94418.25
2022-12-17T15:55:46.767Z,94427.50
2022-12-17T15:58:19.329Z,94397.81
2022-12-17T16:00:45.754Z,94422.75
2022-12-17T16:03:12.262Z,94381.91
2022-12-17T16:05:38.789Z,94444.56
2022-12-17T16:08:05.337Z,94407.09
2022-12-17T16:10:31.839Z,94433.84
2022-12-17T16:12:58.276Z,94444.44
2022-12-17T16:15:33.910Z,94396.41
2022-12-17T16:18:00.351Z,94419.22
2022-12-17T16:20:26.760Z,94434.28
2022-12-17T16:22:53.324Z,94436.13
2022-12-17T16:25:19.811Z,94427.34
2022-12-17T16:27:46.504Z,94405.94
2022-12-17T16:30:13.709Z,94421.78
2022-12-17T16:32:40.185Z,94424.00
2022-12-17T16:35:06.976Z,94449.38
2022-12-17T16:37:33.454Z,94417.66
2022-12-17T16:40:01.044Z,94433.84
2022-12-17T16:42:28.000Z,94459.03
2022-12-17T16:44:54.425Z,94457.97
2022-12-17T16:47:21.947Z,94439.16
2022-12-17T16:49:50.601Z,94470.44
2022-12-17T16:52:17.031Z,94439.53
2022-12-17T16:54:45.459Z,94448.16
2022-12-17T16:57:11.910Z,94471.56
2022-12-17T16:59:39.687Z,94427.59
2022-12-17T17:02:12.725Z,94495.81
2022-12-17T17:04:44.441Z,94479.06
2022-12-17T17:07:10.898Z,94438.00
2022-12-17T17:09:38.327Z,94483.88
2022-12-17T17:12:05.051Z,94449.63
2022-12-17T17:14:31.442Z,94466.22
2022-12-17T17:17:02.063Z,94449.50
2022-12-17T17:19:36.567Z,94431.44
2022-12-17T17:22:03.058Z,94442.53
2022-12-17T17:24:29.505Z,94453.47
2022-12-17T17:26:56.034Z,94489.50
2022-12-17T17:29:22.944Z,94461.19
2022-12-17T17:34:39.687Z,94498.91
2022-12-17T17:37:06.418Z,94473.91
2022-12-17T17:39:34.112Z,94461.13
2022-12-17T17:42:05.246Z,94481.00
2022-12-17T17:44:31.995Z,94499.56
2022-12-17T17:46:59.818Z,94488.19
2022-12-17T17:49:27.535Z,94463.50
2022-12-17T17:52:10.971Z,94483.38
2022-12-17T17:54:39.651Z,94470.31
2022-12-17T17:57:16.219Z,94482.06
2022-12-17T17:59:42.613Z,94483.38
